Meath Environmental Platform

Observations

Time Sensor AQI SAQ Temp °C Hum % Pres Pa CO μg/m³ H₂S μg/m³ NO μg/m³ NO₂ μg/m³ O₃ μg/m³ SO₂ μg/m³ CO₂e PPM VOC PPM PM1 μg/m³ PM2.5 μg/m³ PM4 μg/m³ PM10 μg/m³ TPS µm
Thursday 13 August 2026
03:04 Trim Patrick St 2 20.8 75 38,460 0 13.65 1.12 38.33 23.08 4.99 5.43 9.11 10.02
03:03 Trim Patrick St 2 20.8 75 38,460 0 17.53 1.15 32.71 30.23 6.39 8.86 14.07 15.48
03:03 Trim Market St 2 21.3 70 51,971 0.04 3.54 1.07 26.29 47.94 0 3.56 6.43 10.03
03:02 Trim Patrick St 2 20.7 75 38,460 0 21.82 1.12 38.55 31.95 6.6 8 12.67 13.94
03:01 Trim Patrick St 2 20.7 75 38,460 0 24.67 1.16 45.4 22.74 6.37 8 11.98 13.17
03:01 Trim Market St 3 21.3 70 52,421 0.05 2.78 1.07 24.7 48.05 0 2.85 4.98 8.16
02:58 Trim Patrick St 2 20.7 75 38,460 0 11.23 1.11 19.61 43.17 6.39 8 11.26 12.39
02:58 Trim Market St 3 21.3 70 53,168 0.05 1.14 1.06 21.53 50.93 0 3.56 5 7.53
02:57 Trim Patrick St 2 20.7 75 38,460 0 13.92 1.11 33.53 30.08 5.52 7.14 12.68 13.95
02:56 Trim Patrick St 2 20.7 74 38,460 0 11.54 1.11 22.29 41.1 6.06 8.86 12.7 13.97
02:55 Trim Patrick St 2 20.7 74 38,460 0 12.97 1.11 27.14 34.17 5.89 8.86 14.15 15.56
02:54 Trim Patrick St 2 20.7 74 38,460 0 12.47 1.11 19.79 40.99 6.15 7.14 10.59 11.64
02:53 Trim Patrick St 2 20.7 74 38,460 0 18.11 1.11 32.63 33.4 5.94 8 12.01 13.21
02:52 Trim Patrick St 2 20.7 74 38,460 0 15.89 1.12 44.46 24.61 4.97 8 12.75 14.02
02:51 Trim Patrick St 2 20.7 74 38,460 0 13.26 1.11 26.93 39.19 6.02 8.86 12.77 14.04
02:51 Trim Market St 3 21.3 69 54,526 0.04 1.3 1.05 23.92 40.4 0 2.85 4.54 7.53
02:50 Trim Patrick St 2 20.7 74 38,460 0 12.89 1.11 20.19 41.34 6.05 8 12.03 13.23
02:49 Trim Patrick St 2 20.7 74 38,460 0 16.02 1.11 45.25 23.63 5.07 8 11.32 12.45
02:48 Trim Market St 3 21.3 69 54,748 0.04 0.85 1.06 22.41 51.16 0 3.56 5.05 8.16
02:47 Trim Patrick St 2 20.7 73 38,460 0 15.37 1.11 30.3 43.11 6.44 8.86 12.83 14.11